sensor_id;sensor_type;location;lat;lon;timestamp;temperature;humidity
27114;DHT22;14648;49.730;8.614;2024-03-02T00:00:26;9.20;51.90
27114;DHT22;14648;49.730;8.614;2024-03-02T00:02:52;9.30;51.90
27114;DHT22;14648;49.730;8.614;2024-03-02T00:05:19;9.40;51.90
27114;DHT22;14648;49.730;8.614;2024-03-02T00:07:54;9.50;51.90
27114;DHT22;14648;49.730;8.614;2024-03-02T00:10:26;9.60;51.90
27114;DHT22;14648;49.730;8.614;2024-03-02T00:12:56;9.60;51.80
27114;DHT22;14648;49.730;8.614;2024-03-02T00:15:48;9.70;51.90
27114;DHT22;14648;49.730;8.614;2024-03-02T00:18:34;9.80;51.80
27114;DHT22;14648;49.730;8.614;2024-03-02T00:21:01;9.90;51.80
27114;DHT22;14648;49.730;8.614;2024-03-02T00:23:30;9.90;51.80
27114;DHT22;14648;49.730;8.614;2024-03-02T00:25:56;10.00;52.40
27114;DHT22;14648;49.730;8.614;2024-03-02T00:28:33;10.00;51.70
27114;DHT22;14648;49.730;8.614;2024-03-02T00:31:05;10.00;51.80
27114;DHT22;14648;49.730;8.614;2024-03-02T00:33:41;10.00;51.80
27114;DHT22;14648;49.730;8.614;2024-03-02T00:36:08;10.00;51.90
27114;DHT22;14648;49.730;8.614;2024-03-02T00:38:44;10.00;51.90
27114;DHT22;14648;49.730;8.614;2024-03-02T00:41:32;10.00;51.90
27114;DHT22;14648;49.730;8.614;2024-03-02T00:46:43;10.00;51.90
27114;DHT22;14648;49.730;8.614;2024-03-02T00:49:21;10.00;51.80
27114;DHT22;14648;49.730;8.614;2024-03-02T00:51:50;10.00;51.80
27114;DHT22;14648;49.730;8.614;2024-03-02T00:54:21;10.00;51.80
27114;DHT22;14648;49.730;8.614;2024-03-02T00:56:56;10.00;51.80
27114;DHT22;14648;49.730;8.614;2024-03-02T00:59:23;10.10;51.80
27114;DHT22;14648;49.730;8.614;2024-03-02T01:01:49;10.00;51.70
27114;DHT22;14648;49.730;8.614;2024-03-02T01:04:15;10.00;51.70
27114;DHT22;14648;49.730;8.614;2024-03-02T01:06:42;10.10;51.70
27114;DHT22;14648;49.730;8.614;2024-03-02T01:09:09;10.10;51.60
27114;DHT22;14648;49.730;8.614;2024-03-02T01:11:34;10.10;51.60
27114;DHT22;14648;49.730;8.614;2024-03-02T01:14:00;10.10;51.60
27114;DHT22;14648;49.730;8.614;2024-03-02T01:16:26;10.00;51.50
27114;DHT22;14648;49.730;8.614;2024-03-02T01:18:51;10.00;51.50
27114;DHT22;14648;49.730;8.614;2024-03-02T01:21:18;10.00;51.60
27114;DHT22;14648;49.730;8.614;2024-03-02T01:23:43;9.90;51.60
27114;DHT22;14648;49.730;8.614;2024-03-02T01:26:09;9.80;51.60
27114;DHT22;14648;49.730;8.614;2024-03-02T01:28:35;9.70;51.60
27114;DHT22;14648;49.730;8.614;2024-03-02T01:31:00;9.50;51.70
27114;DHT22;14648;49.730;8.614;2024-03-02T01:33:27;9.30;51.80
27114;DHT22;14648;49.730;8.614;2024-03-02T01:35:53;9.10;52.00
27114;DHT22;14648;49.730;8.614;2024-03-02T01:38:18;8.90;52.20
27114;DHT22;14648;49.730;8.614;2024-03-02T01:40:45;8.70;52.30
27114;DHT22;14648;49.730;8.614;2024-03-02T01:43:11;8.60;52.30
27114;DHT22;14648;49.730;8.614;2024-03-02T01:45:36;8.50;52.50
27114;DHT22;14648;49.730;8.614;2024-03-02T01:48:04;8.40;52.50
27114;DHT22;14648;49.730;8.614;2024-03-02T01:50:34;8.30;52.60
27114;DHT22;14648;49.730;8.614;2024-03-02T01:53:01;8.10;52.60
27114;DHT22;14648;49.730;8.614;2024-03-02T01:55:28;8.00;52.50
27114;DHT22;14648;49.730;8.614;2024-03-02T01:57:55;7.90;52.60
27114;DHT22;14648;49.730;8.614;2024-03-02T02:00:21;7.90;52.70
27114;DHT22;14648;49.730;8.614;2024-03-02T02:02:50;7.80;52.50
27114;DHT22;14648;49.730;8.614;2024-03-02T02:05:16;7.70;52.60
27114;DHT22;14648;49.730;8.614;2024-03-02T02:07:42;7.60;52.50
27114;DHT22;14648;49.730;8.614;2024-03-02T02:10:09;7.50;52.50
27114;DHT22;14648;49.730;8.614;2024-03-02T02:12:35;7.50;52.50
27114;DHT22;14648;49.730;8.614;2024-03-02T02:15:02;7.50;52.40
27114;DHT22;14648;49.730;8.614;2024-03-02T02:17:28;7.40;52.40
27114;DHT22;14648;49.730;8.614;2024-03-02T02:19:54;7.40;52.60
27114;DHT22;14648;49.730;8.614;2024-03-02T02:22:20;7.50;52.50
27114;DHT22;14648;49.730;8.614;2024-03-02T02:24:45;7.70;52.10
27114;DHT22;14648;49.730;8.614;2024-03-02T02:27:11;7.90;51.60
27114;DHT22;14648;49.730;8.614;2024-03-02T02:29:40;8.10;51.50
27114;DHT22;14648;49.730;8.614;2024-03-02T02:32:06;8.20;51.30
27114;DHT22;14648;49.730;8.614;2024-03-02T02:34:32;8.40;51.20
27114;DHT22;14648;49.730;8.614;2024-03-02T02:36:58;8.60;50.90
27114;DHT22;14648;49.730;8.614;2024-03-02T02:39:24;8.70;51.00
27114;DHT22;14648;49.730;8.614;2024-03-02T02:41:50;8.80;50.70
27114;DHT22;14648;49.730;8.614;2024-03-02T02:44:16;8.90;50.80
27114;DHT22;14648;49.730;8.614;2024-03-02T02:46:42;9.00;50.80
27114;DHT22;14648;49.730;8.614;2024-03-02T02:49:07;9.00;50.80
27114;DHT22;14648;49.730;8.614;2024-03-02T02:51:33;9.00;50.80
27114;DHT22;14648;49.730;8.614;2024-03-02T02:53:59;9.10;51.00
27114;DHT22;14648;49.730;8.614;2024-03-02T02:56:24;9.10;51.00
27114;DHT22;14648;49.730;8.614;2024-03-02T02:58:50;9.30;51.00
27114;DHT22;14648;49.730;8.614;2024-03-02T03:01:16;9.40;50.90
27114;DHT22;14648;49.730;8.614;2024-03-02T03:03:44;9.40;50.80
27114;DHT22;14648;49.730;8.614;2024-03-02T03:06:10;9.50;50.90
27114;DHT22;14648;49.730;8.614;2024-03-02T03:08:36;9.50;50.80
27114;DHT22;14648;49.730;8.614;2024-03-02T03:11:02;9.50;50.70
27114;DHT22;14648;49.730;8.614;2024-03-02T03:13:29;9.60;50.80
27114;DHT22;14648;49.730;8.614;2024-03-02T03:15:54;9.70;51.60
27114;DHT22;14648;49.730;8.614;2024-03-02T03:18:20;9.70;50.80
27114;DHT22;14648;49.730;8.614;2024-03-02T03:20:46;9.70;50.80
27114;DHT22;14648;49.730;8.614;2024-03-02T03:23:12;9.70;50.90
27114;DHT22;14648;49.730;8.614;2024-03-02T03:25:41;9.70;50.90
27114;DHT22;14648;49.730;8.614;2024-03-02T03:28:07;9.70;50.80
27114;DHT22;14648;49.730;8.614;2024-03-02T03:30:37;9.60;50.80
27114;DHT22;14648;49.730;8.614;2024-03-02T03:33:03;9.40;50.90
27114;DHT22;14648;49.730;8.614;2024-03-02T03:35:31;9.20;51.00
27114;DHT22;14648;49.730;8.614;2024-03-02T03:37:57;9.00;51.30
27114;DHT22;14648;49.730;8.614;2024-03-02T03:40:24;8.80;51.60
27114;DHT22;14648;49.730;8.614;2024-03-02T03:42:50;8.60;51.70
27114;DHT22;14648;49.730;8.614;2024-03-02T03:45:16;8.30;52.00
27114;DHT22;14648;49.730;8.614;2024-03-02T03:47:42;8.10;52.10
27114;DHT22;14648;49.730;8.614;2024-03-02T03:50:07;8.00;52.20
27114;DHT22;14648;49.730;8.614;2024-03-02T03:52:33;7.90;52.40
27114;DHT22;14648;49.730;8.614;2024-03-02T03:54:59;7.80;52.30
27114;DHT22;14648;49.730;8.614;2024-03-02T03:57:26;7.70;52.30
27114;DHT22;14648;49.730;8.614;2024-03-02T03:59:52;7.60;52.20
27114;DHT22;14648;49.730;8.614;2024-03-02T04:02:19;7.50;52.10
27114;DHT22;14648;49.730;8.614;2024-03-02T04:04:45;7.40;52.00
27114;DHT22;14648;49.730;8.614;2024-03-02T04:07:11;7.40;52.00
27114;DHT22;14648;49.730;8.614;2024-03-02T04:09:37;7.30;52.00
27114;DHT22;14648;49.730;8.614;2024-03-02T04:12:03;7.30;52.00
27114;DHT22;14648;49.730;8.614;2024-03-02T04:14:29;7.10;51.90
27114;DHT22;14648;49.730;8.614;2024-03-02T04:16:55;7.10;51.90
27114;DHT22;14648;49.730;8.614;2024-03-02T04:19:21;7.10;51.90
27114;DHT22;14648;49.730;8.614;2024-03-02T04:21:46;7.00;51.80
27114;DHT22;14648;49.730;8.614;2024-03-02T04:24:12;7.00;51.90
27114;DHT22;14648;49.730;8.614;2024-03-02T04:26:38;6.90;51.90
27114;DHT22;14648;49.730;8.614;2024-03-02T04:29:03;6.80;51.80
27114;DHT22;14648;49.730;8.614;2024-03-02T04:31:29;6.80;51.80
27114;DHT22;14648;49.730;8.614;2024-03-02T04:33:55;6.80;51.80
27114;DHT22;14648;49.730;8.614;2024-03-02T04:36:20;6.80;51.80
27114;DHT22;14648;49.730;8.614;2024-03-02T04:38:47;6.70;51.90
27114;DHT22;14648;49.730;8.614;2024-03-02T04:41:13;6.70;51.90
27114;DHT22;14648;49.730;8.614;2024-03-02T04:43:39;6.60;51.80
27114;DHT22;14648;49.730;8.614;2024-03-02T04:46:05;6.50;51.80
27114;DHT22;14648;49.730;8.614;2024-03-02T04:48:32;6.50;52.00
27114;DHT22;14648;49.730;8.614;2024-03-02T04:50:58;6.40;51.90
27114;DHT22;14648;49.730;8.614;2024-03-02T04:53:23;6.30;52.10
27114;DHT22;14648;49.730;8.614;2024-03-02T04:55:49;6.30;52.10
27114;DHT22;14648;49.730;8.614;2024-03-02T04:58:35;6.30;52.10
27114;DHT22;14648;49.730;8.614;2024-03-02T05:01:01;6.20;52.00
27114;DHT22;14648;49.730;8.614;2024-03-02T05:03:27;6.20;52.00
27114;DHT22;14648;49.730;8.614;2024-03-02T05:05:52;6.20;52.10
27114;DHT22;14648;49.730;8.614;2024-03-02T05:08:18;6.20;52.10
27114;DHT22;14648;49.730;8.614;2024-03-02T05:10:44;6.20;52.20
27114;DHT22;14648;49.730;8.614;2024-03-02T05:13:09;6.10;52.10
27114;DHT22;14648;49.730;8.614;2024-03-02T05:15:35;6.10;52.10
27114;DHT22;14648;49.730;8.614;2024-03-02T05:18:01;6.10;52.10
27114;DHT22;14648;49.730;8.614;2024-03-02T05:20:30;6.10;52.10
27114;DHT22;14648;49.730;8.614;2024-03-02T05:22:56;6.10;52.20
27114;DHT22;14648;49.730;8.614;2024-03-02T05:25:22;6.00;52.20
27114;DHT22;14648;49.730;8.614;2024-03-02T05:27:48;6.00;52.30
27114;DHT22;14648;49.730;8.614;2024-03-02T05:30:14;6.00;52.40
27114;DHT22;14648;49.730;8.614;2024-03-02T05:32:40;6.00;52.40
27114;DHT22;14648;49.730;8.614;2024-03-02T05:35:06;6.00;52.50
27114;DHT22;14648;49.730;8.614;2024-03-02T05:37:33;6.00;52.40
27114;DHT22;14648;49.730;8.614;2024-03-02T05:39:59;6.00;52.40
27114;DHT22;14648;49.730;8.614;2024-03-02T05:42:25;6.00;53.10
27114;DHT22;14648;49.730;8.614;2024-03-02T05:44:50;6.10;52.50
27114;DHT22;14648;49.730;8.614;2024-03-02T05:47:16;6.10;52.40
27114;DHT22;14648;49.730;8.614;2024-03-02T05:49:42;6.20;52.40
27114;DHT22;14648;49.730;8.614;2024-03-02T05:52:08;6.20;52.50
27114;DHT22;14648;49.730;8.614;2024-03-02T05:54:34;6.20;52.50
27114;DHT22;14648;49.730;8.614;2024-03-02T05:56:59;6.30;52.60
27114;DHT22;14648;49.730;8.614;2024-03-02T05:59:42;6.30;52.70
27114;DHT22;14648;49.730;8.614;2024-03-02T06:02:09;6.30;52.70
27114;DHT22;14648;49.730;8.614;2024-03-02T06:04:34;6.40;52.70
27114;DHT22;14648;49.730;8.614;2024-03-02T06:07:00;6.40;52.70
27114;DHT22;14648;49.730;8.614;2024-03-02T06:09:25;6.40;52.80
27114;DHT22;14648;49.730;8.614;2024-03-02T06:11:51;6.40;52.80
27114;DHT22;14648;49.730;8.614;2024-03-02T06:14:17;6.40;52.80
27114;DHT22;14648;49.730;8.614;2024-03-02T06:16:43;6.40;52.90
27114;DHT22;14648;49.730;8.614;2024-03-02T06:19:08;6.40;53.00
27114;DHT22;14648;49.730;8.614;2024-03-02T06:21:34;6.40;53.10
27114;DHT22;14648;49.730;8.614;2024-03-02T06:24:00;6.40;53.20
27114;DHT22;14648;49.730;8.614;2024-03-02T06:26:26;6.40;53.20
27114;DHT22;14648;49.730;8.614;2024-03-02T06:28:52;6.40;53.30
27114;DHT22;14648;49.730;8.614;2024-03-02T06:31:18;6.40;53.30
27114;DHT22;14648;49.730;8.614;2024-03-02T06:33:43;6.40;53.30
27114;DHT22;14648;49.730;8.614;2024-03-02T06:36:09;6.40;53.40
27114;DHT22;14648;49.730;8.614;2024-03-02T06:38:37;6.40;54.10
27114;DHT22;14648;49.730;8.614;2024-03-02T06:41:03;6.30;53.50
27114;DHT22;14648;49.730;8.614;2024-03-02T06:43:28;6.30;53.50
27114;DHT22;14648;49.730;8.614;2024-03-02T06:45:54;6.30;53.60
27114;DHT22;14648;49.730;8.614;2024-03-02T06:48:20;6.30;53.60
27114;DHT22;14648;49.730;8.614;2024-03-02T06:50:49;6.30;53.60
27114;DHT22;14648;49.730;8.614;2024-03-02T06:53:16;6.30;53.60
27114;DHT22;14648;49.730;8.614;2024-03-02T06:55:46;6.30;53.60
27114;DHT22;14648;49.730;8.614;2024-03-02T06:58:13;6.30;53.60
27114;DHT22;14648;49.730;8.614;2024-03-02T07:00:40;6.20;53.50
27114;DHT22;14648;49.730;8.614;2024-03-02T07:03:13;6.20;53.50
27114;DHT22;14648;49.730;8.614;2024-03-02T07:05:39;6.20;53.60
27114;DHT22;14648;49.730;8.614;2024-03-02T07:08:05;6.20;53.60
27114;DHT22;14648;49.730;8.614;2024-03-02T07:10:31;6.20;53.70
27114;DHT22;14648;49.730;8.614;2024-03-02T07:12:57;6.20;53.70
27114;DHT22;14648;49.730;8.614;2024-03-02T07:15:23;6.20;53.70
27114;DHT22;14648;49.730;8.614;2024-03-02T07:18:08;6.20;53.70
27114;DHT22;14648;49.730;8.614;2024-03-02T07:20:34;6.30;53.80
27114;DHT22;14648;49.730;8.614;2024-03-02T07:23:00;6.30;53.80
27114;DHT22;14648;49.730;8.614;2024-03-02T07:25:25;6.30;53.90
27114;DHT22;14648;49.730;8.614;2024-03-02T07:27:51;6.30;53.80
27114;DHT22;14648;49.730;8.614;2024-03-02T07:30:18;6.30;53.90
27114;DHT22;14648;49.730;8.614;2024-03-02T07:32:44;6.30;53.90
27114;DHT22;14648;49.730;8.614;2024-03-02T07:35:12;6.30;53.90
27114;DHT22;14648;49.730;8.614;2024-03-02T07:37:39;6.20;53.90
27114;DHT22;14648;49.730;8.614;2024-03-02T07:40:05;6.20;54.00
27114;DHT22;14648;49.730;8.614;2024-03-02T07:42:34;6.20;54.10
27114;DHT22;14648;49.730;8.614;2024-03-02T07:45:00;6.30;54.20
27114;DHT22;14648;49.730;8.614;2024-03-02T07:47:26;6.30;54.30
27114;DHT22;14648;49.730;8.614;2024-03-02T07:49:51;6.40;54.20
27114;DHT22;14648;49.730;8.614;2024-03-02T07:52:17;6.50;54.40
27114;DHT22;14648;49.730;8.614;2024-03-02T07:54:43;6.70;54.40
27114;DHT22;14648;49.730;8.614;2024-03-02T07:57:08;6.80;54.50
27114;DHT22;14648;49.730;8.614;2024-03-02T07:59:34;6.90;54.60
27114;DHT22;14648;49.730;8.614;2024-03-02T08:02:00;7.10;54.70
27114;DHT22;14648;49.730;8.614;2024-03-02T08:04:26;7.30;54.90
27114;DHT22;14648;49.730;8.614;2024-03-02T08:06:52;7.40;55.00
27114;DHT22;14648;49.730;8.614;2024-03-02T08:09:17;7.50;55.20
27114;DHT22;14648;49.730;8.614;2024-03-02T08:11:43;7.70;55.30
27114;DHT22;14648;49.730;8.614;2024-03-02T08:14:09;7.80;55.30
27114;DHT22;14648;49.730;8.614;2024-03-02T08:16:35;7.90;55.40
27114;DHT22;14648;49.730;8.614;2024-03-02T08:19:01;8.00;55.50
27114;DHT22;14648;49.730;8.614;2024-03-02T08:21:26;8.20;55.60
27114;DHT22;14648;49.730;8.614;2024-03-02T08:23:56;8.30;55.80
27114;DHT22;14648;49.730;8.614;2024-03-02T08:26:23;8.50;55.90
27114;DHT22;14648;49.730;8.614;2024-03-02T08:28:48;8.60;55.80
27114;DHT22;14648;49.730;8.614;2024-03-02T08:31:14;8.80;56.10
27114;DHT22;14648;49.730;8.614;2024-03-02T08:33:40;9.00;56.20
27114;DHT22;14648;49.730;8.614;2024-03-02T08:36:06;9.10;56.30
27114;DHT22;14648;49.730;8.614;2024-03-02T08:38:32;9.40;56.40
27114;DHT22;14648;49.730;8.614;2024-03-02T08:40:58;9.60;56.50
27114;DHT22;14648;49.730;8.614;2024-03-02T08:43:24;9.70;56.50
27114;DHT22;14648;49.730;8.614;2024-03-02T08:45:50;9.80;56.60
27114;DHT22;14648;49.730;8.614;2024-03-02T08:48:16;10.00;56.70
27114;DHT22;14648;49.730;8.614;2024-03-02T08:50:42;10.30;56.80
27114;DHT22;14648;49.730;8.614;2024-03-02T08:53:07;10.60;56.80
27114;DHT22;14648;49.730;8.614;2024-03-02T08:55:33;10.80;56.70
27114;DHT22;14648;49.730;8.614;2024-03-02T08:57:59;11.00;56.80
27114;DHT22;14648;49.730;8.614;2024-03-02T09:00:25;11.20;56.80
27114;DHT22;14648;49.730;8.614;2024-03-02T09:02:51;11.30;56.90
27114;DHT22;14648;49.730;8.614;2024-03-02T09:05:17;11.50;56.90
27114;DHT22;14648;49.730;8.614;2024-03-02T09:07:42;11.60;57.00
27114;DHT22;14648;49.730;8.614;2024-03-02T09:10:09;11.60;56.90
27114;DHT22;14648;49.730;8.614;2024-03-02T09:12:35;11.70;57.10
27114;DHT22;14648;49.730;8.614;2024-03-02T09:15:02;11.80;57.20
27114;DHT22;14648;49.730;8.614;2024-03-02T09:17:29;11.90;57.30
27114;DHT22;14648;49.730;8.614;2024-03-02T09:19:55;12.00;57.40
27114;DHT22;14648;49.730;8.614;2024-03-02T09:22:21;12.10;57.40
27114;DHT22;14648;49.730;8.614;2024-03-02T09:24:47;12.20;57.30
27114;DHT22;14648;49.730;8.614;2024-03-02T09:27:12;12.40;57.30
27114;DHT22;14648;49.730;8.614;2024-03-02T09:29:38;12.40;57.20
27114;DHT22;14648;49.730;8.614;2024-03-02T09:32:05;12.50;57.90
27114;DHT22;14648;49.730;8.614;2024-03-02T09:34:32;12.70;57.30
27114;DHT22;14648;49.730;8.614;2024-03-02T09:36:58;12.80;57.20
27114;DHT22;14648;49.730;8.614;2024-03-02T09:39:24;12.90;57.30
27114;DHT22;14648;49.730;8.614;2024-03-02T09:41:51;13.00;57.10
27114;DHT22;14648;49.730;8.614;2024-03-02T09:44:17;13.20;57.10
27114;DHT22;14648;49.730;8.614;2024-03-02T09:46:43;13.30;57.10
27114;DHT22;14648;49.730;8.614;2024-03-02T09:49:12;13.50;57.00
27114;DHT22;14648;49.730;8.614;2024-03-02T09:51:39;13.70;56.90
27114;DHT22;14648;49.730;8.614;2024-03-02T09:54:07;14.00;56.90
27114;DHT22;14648;49.730;8.614;2024-03-02T09:56:33;14.20;56.80
27114;DHT22;14648;49.730;8.614;2024-03-02T09:58:59;14.50;56.70
27114;DHT22;14648;49.730;8.614;2024-03-02T10:01:25;14.90;56.30
27114;DHT22;14648;49.730;8.614;2024-03-02T10:03:51;15.20;56.00
27114;DHT22;14648;49.730;8.614;2024-03-02T10:06:25;15.40;55.60
27114;DHT22;14648;49.730;8.614;2024-03-02T10:08:52;15.60;55.40
27114;DHT22;14648;49.730;8.614;2024-03-02T10:11:33;15.80;55.60
27114;DHT22;14648;49.730;8.614;2024-03-02T10:16:39;16.50;55.30
27114;DHT22;14648;49.730;8.614;2024-03-02T10:19:23;16.90;55.00
27114;DHT22;14648;49.730;8.614;2024-03-02T10:21:53;17.20;54.60
27114;DHT22;14648;49.730;8.614;2024-03-02T10:24:21;17.50;54.60
27114;DHT22;14648;49.730;8.614;2024-03-02T10:26:48;17.80;54.40
27114;DHT22;14648;49.730;8.614;2024-03-02T10:29:14;18.00;54.30
27114;DHT22;14648;49.730;8.614;2024-03-02T10:31:41;18.10;54.20
27114;DHT22;14648;49.730;8.614;2024-03-02T10:34:09;18.30;54.30
27114;DHT22;14648;49.730;8.614;2024-03-02T10:36:36;18.40;54.20
27114;DHT22;14648;49.730;8.614;2024-03-02T10:39:04;18.60;54.10
27114;DHT22;14648;49.730;8.614;2024-03-02T10:41:36;18.70;54.10
27114;DHT22;14648;49.730;8.614;2024-03-02T10:44:03;18.80;54.00
27114;DHT22;14648;49.730;8.614;2024-03-02T10:46:32;19.00;54.00
27114;DHT22;14648;49.730;8.614;2024-03-02T10:48:59;19.10;53.90
27114;DHT22;14648;49.730;8.614;2024-03-02T10:51:26;19.20;53.60
27114;DHT22;14648;49.730;8.614;2024-03-02T10:53:54;19.20;53.40
27114;DHT22;14648;49.730;8.614;2024-03-02T10:59:35;19.40;52.70
27114;DHT22;14648;49.730;8.614;2024-03-02T11:02:04;19.50;53.00
27114;DHT22;14648;49.730;8.614;2024-03-02T11:04:32;19.70;52.80
27114;DHT22;14648;49.730;8.614;2024-03-02T11:07:08;19.80;52.60
27114;DHT22;14648;49.730;8.614;2024-03-02T11:09:42;20.00;51.90
27114;DHT22;14648;49.730;8.614;2024-03-02T11:12:29;20.00;51.80
27114;DHT22;14648;49.730;8.614;2024-03-02T11:14:58;20.10;51.70
27114;DHT22;14648;49.730;8.614;2024-03-02T11:17:26;20.20;51.60
27114;DHT22;14648;49.730;8.614;2024-03-02T11:19:52;20.30;51.40
27114;DHT22;14648;49.730;8.614;2024-03-02T11:22:18;20.30;51.30
27114;DHT22;14648;49.730;8.614;2024-03-02T11:24:48;20.20;50.80
27114;DHT22;14648;49.730;8.614;2024-03-02T11:27:14;20.00;50.30
27114;DHT22;14648;49.730;8.614;2024-03-02T11:33:01;19.40;49.90
27114;DHT22;14648;49.730;8.614;2024-03-02T11:35:44;19.20;49.80
27114;DHT22;14648;49.730;8.614;2024-03-02T11:38:14;19.00;49.30
27114;DHT22;14648;49.730;8.614;2024-03-02T11:40:40;18.90;49.30
27114;DHT22;14648;49.730;8.614;2024-03-02T11:43:06;18.90;48.80
27114;DHT22;14648;49.730;8.614;2024-03-02T11:45:36;19.00;48.40
27114;DHT22;14648;49.730;8.614;2024-03-02T11:48:08;19.20;48.00
27114;DHT22;14648;49.730;8.614;2024-03-02T11:50:42;19.40;47.70
27114;DHT22;14648;49.730;8.614;2024-03-02T11:53:12;19.50;47.40
27114;DHT22;14648;49.730;8.614;2024-03-02T11:55:39;19.70;47.30
27114;DHT22;14648;49.730;8.614;2024-03-02T11:58:15;19.70;47.60
27114;DHT22;14648;49.730;8.614;2024-03-02T12:00:53;19.70;46.70
27114;DHT22;14648;49.730;8.614;2024-03-02T12:03:22;19.70;46.40
27114;DHT22;14648;49.730;8.614;2024-03-02T12:05:55;19.90;46.30
27114;DHT22;14648;49.730;8.614;2024-03-02T12:08:21;19.90;45.80
27114;DHT22;14648;49.730;8.614;2024-03-02T12:10:58;19.90;45.80
27114;DHT22;14648;49.730;8.614;2024-03-02T12:13:26;19.90;45.40
27114;DHT22;14648;49.730;8.614;2024-03-02T12:15:54;20.00;45.80
27114;DHT22;14648;49.730;8.614;2024-03-02T12:18:23;20.20;45.30
27114;DHT22;14648;49.730;8.614;2024-03-02T12:20:49;20.30;45.40
27114;DHT22;14648;49.730;8.614;2024-03-02T12:23:18;20.50;45.20
27114;DHT22;14648;49.730;8.614;2024-03-02T12:25:45;20.70;44.90
27114;DHT22;14648;49.730;8.614;2024-03-02T12:28:11;20.90;44.50
27114;DHT22;14648;49.730;8.614;2024-03-02T12:30:37;21.00;44.30
27114;DHT22;14648;49.730;8.614;2024-03-02T12:33:03;21.10;44.10
27114;DHT22;14648;49.730;8.614;2024-03-02T12:35:30;21.10;43.80
27114;DHT22;14648;49.730;8.614;2024-03-02T12:37:55;21.20;43.90
27114;DHT22;14648;49.730;8.614;2024-03-02T12:40:22;21.40;43.70
27114;DHT22;14648;49.730;8.614;2024-03-02T12:42:48;21.60;43.40
27114;DHT22;14648;49.730;8.614;2024-03-02T12:45:16;21.80;43.10
27114;DHT22;14648;49.730;8.614;2024-03-02T12:47:49;21.90;42.90
27114;DHT22;14648;49.730;8.614;2024-03-02T12:50:16;22.00;42.90
27114;DHT22;14648;49.730;8.614;2024-03-02T12:52:41;22.20;42.80
27114;DHT22;14648;49.730;8.614;2024-03-02T12:55:07;22.40;42.50
27114;DHT22;14648;49.730;8.614;2024-03-02T12:57:33;22.30;42.30
27114;DHT22;14648;49.730;8.614;2024-03-02T13:00:00;22.20;42.20
27114;DHT22;14648;49.730;8.614;2024-03-02T13:02:40;22.30;42.30
27114;DHT22;14648;49.730;8.614;2024-03-02T13:05:07;22.60;41.90
27114;DHT22;14648;49.730;8.614;2024-03-02T13:07:39;22.70;41.80
27114;DHT22;14648;49.730;8.614;2024-03-02T13:10:06;22.70;41.30
27114;DHT22;14648;49.730;8.614;2024-03-02T13:12:36;22.50;41.10
27114;DHT22;14648;49.730;8.614;2024-03-02T13:15:03;22.40;40.80
27114;DHT22;14648;49.730;8.614;2024-03-02T13:17:30;22.40;40.90
27114;DHT22;14648;49.730;8.614;2024-03-02T13:19:59;22.40;40.90
27114;DHT22;14648;49.730;8.614;2024-03-02T13:22:26;22.50;40.70
27114;DHT22;14648;49.730;8.614;2024-03-02T13:24:52;22.70;40.50
27114;DHT22;14648;49.730;8.614;2024-03-02T13:27:20;22.90;40.00
27114;DHT22;14648;49.730;8.614;2024-03-02T13:29:46;23.10;39.70
27114;DHT22;14648;49.730;8.614;2024-03-02T13:32:13;23.30;39.50
27114;DHT22;14648;49.730;8.614;2024-03-02T13:34:40;23.50;39.20
27114;DHT22;14648;49.730;8.614;2024-03-02T13:37:06;23.70;38.80
27114;DHT22;14648;49.730;8.614;2024-03-02T13:39:32;23.80;38.50
27114;DHT22;14648;49.730;8.614;2024-03-02T13:41:58;23.80;38.60
27114;DHT22;14648;49.730;8.614;2024-03-02T13:44:31;23.80;38.50
27114;DHT22;14648;49.730;8.614;2024-03-02T13:46:59;23.80;38.60
27114;DHT22;14648;49.730;8.614;2024-03-02T13:49:25;24.00;38.60
27114;DHT22;14648;49.730;8.614;2024-03-02T13:52:05;24.20;38.10
27114;DHT22;14648;49.730;8.614;2024-03-02T13:54:44;24.00;37.90
27114;DHT22;14648;49.730;8.614;2024-03-02T13:57:11;24.00;37.90
27114;DHT22;14648;49.730;8.614;2024-03-02T13:59:38;24.00;37.70
27114;DHT22;14648;49.730;8.614;2024-03-02T14:02:07;23.90;37.70
27114;DHT22;14648;49.730;8.614;2024-03-02T14:04:34;23.80;37.60
27114;DHT22;14648;49.730;8.614;2024-03-02T14:07:01;23.80;37.50
27114;DHT22;14648;49.730;8.614;2024-03-02T14:09:27;23.90;37.40
27114;DHT22;14648;49.730;8.614;2024-03-02T14:11:56;23.90;37.30
27114;DHT22;14648;49.730;8.614;2024-03-02T14:14:22;24.10;37.00
27114;DHT22;14648;49.730;8.614;2024-03-02T14:16:48;24.10;36.90
27114;DHT22;14648;49.730;8.614;2024-03-02T14:19:14;24.10;36.80
27114;DHT22;14648;49.730;8.614;2024-03-02T14:21:40;24.10;36.70
27114;DHT22;14648;49.730;8.614;2024-03-02T14:24:06;24.10;36.50
27114;DHT22;14648;49.730;8.614;2024-03-02T14:26:35;24.10;36.30
27114;DHT22;14648;49.730;8.614;2024-03-02T14:29:02;24.10;36.20
27114;DHT22;14648;49.730;8.614;2024-03-02T14:31:29;24.20;35.70
27114;DHT22;14648;49.730;8.614;2024-03-02T14:33:56;24.00;35.50
27114;DHT22;14648;49.730;8.614;2024-03-02T14:36:22;23.90;35.40
27114;DHT22;14648;49.730;8.614;2024-03-02T14:38:48;23.80;35.30
27114;DHT22;14648;49.730;8.614;2024-03-02T14:41:14;23.60;35.40
27114;DHT22;14648;49.730;8.614;2024-03-02T14:43:40;23.50;35.40
27114;DHT22;14648;49.730;8.614;2024-03-02T14:46:06;23.20;35.30
27114;DHT22;14648;49.730;8.614;2024-03-02T14:48:38;23.00;35.20
27114;DHT22;14648;49.730;8.614;2024-03-02T14:51:04;22.80;35.00
27114;DHT22;14648;49.730;8.614;2024-03-02T14:53:30;22.70;34.90
27114;DHT22;14648;49.730;8.614;2024-03-02T14:55:57;22.50;34.70
27114;DHT22;14648;49.730;8.614;2024-03-02T14:58:23;22.30;34.70
27114;DHT22;14648;49.730;8.614;2024-03-02T15:00:49;22.20;34.80
27114;DHT22;14648;49.730;8.614;2024-03-02T15:03:14;22.10;34.80
27114;DHT22;14648;49.730;8.614;2024-03-02T15:05:40;22.10;34.80
27114;DHT22;14648;49.730;8.614;2024-03-02T15:08:06;22.10;34.80
27114;DHT22;14648;49.730;8.614;2024-03-02T15:10:32;22.20;34.60
27114;DHT22;14648;49.730;8.614;2024-03-02T15:12:58;22.20;34.60
27114;DHT22;14648;49.730;8.614;2024-03-02T15:15:24;22.20;34.50
27114;DHT22;14648;49.730;8.614;2024-03-02T15:17:50;22.30;34.50
27114;DHT22;14648;49.730;8.614;2024-03-02T15:20:17;22.20;34.20
27114;DHT22;14648;49.730;8.614;2024-03-02T15:22:43;22.20;34.10
27114;DHT22;14648;49.730;8.614;2024-03-02T15:25:09;22.00;34.00
27114;DHT22;14648;49.730;8.614;2024-03-02T15:27:35;21.70;34.10
27114;DHT22;14648;49.730;8.614;2024-03-02T15:30:02;21.50;34.10
27114;DHT22;14648;49.730;8.614;2024-03-02T15:32:28;21.40;34.00
27114;DHT22;14648;49.730;8.614;2024-03-02T15:34:54;21.20;33.90
27114;DHT22;14648;49.730;8.614;2024-03-02T15:37:19;20.90;33.90
27114;DHT22;14648;49.730;8.614;2024-03-02T15:39:45;20.70;33.70
27114;DHT22;14648;49.730;8.614;2024-03-02T15:42:11;20.30;33.70
27114;DHT22;14648;49.730;8.614;2024-03-02T15:44:38;20.10;33.60
27114;DHT22;14648;49.730;8.614;2024-03-02T15:47:05;19.70;33.50
27114;DHT22;14648;49.730;8.614;2024-03-02T15:49:30;19.50;33.60